Time;durP1;ratioP1;P1;durP2;ratioP2;P2;SDS_P1;SDS_P2;PMS_P1;PMS_P2;Temp;Humidity;BMP_temperature;BMP_pressure;BME280_temperature;BME280_humidity;BME280_pressure;Samples;Min_cycle;Max_cycle;Signal;HPM_P1;HPM_P2
2021/07/28 00:00:15;;;;;;;2.83;1.38;;;17.20;91.60;;;;;;5070250;28;20090;-77
2021/07/28 00:02:59;;;;;;;2.75;1.38;;;17.20;91.40;;;;;;5079363;28;20036;-77
2021/07/28 00:05:35;;;;;;;3.42;1.58;;;17.20;91.30;;;;;;5083641;28;20028;-77
2021/07/28 00:08:13;;;;;;;3.00;1.65;;;17.20;91.40;;;;;;5090412;28;20036;-77
2021/07/28 00:11:30;;;;;;;2.60;1.48;;;17.20;91.40;;;;;;5087034;28;20101;-77
2021/07/28 00:14:41;;;;;;;2.63;1.20;;;17.20;91.30;;;;;;5029836;28;20511;-77
2021/07/28 00:17:22;;;;;;;4.30;2.30;;;17.10;91.30;;;;;;5033072;28;20044;-77
2021/07/28 00:23:13;;;;;;;3.95;1.83;;;17.10;91.40;;;;;;5086271;28;20056;-77
2021/07/28 00:23:31;;;;;;;3.15;1.52;;;17.00;91.50;;;;;;5084640;28;20518;-77
2021/07/28 00:26:04;;;;;;;3.25;1.48;;;17.00;91.40;;;;;;5089426;28;20036;-77
2021/07/28 00:28:50;;;;;;;2.38;1.38;;;17.00;91.50;;;;;;5075761;28;20040;-77
2021/07/28 00:31:54;;;;;;;2.97;1.63;;;17.00;91.50;;;;;;5093350;28;20050;-77
2021/07/28 00:35:00;;;;;;;4.57;2.53;;;17.00;91.50;;;;;;5088242;28;20109;-77
2021/07/28 00:38:05;;;;;;;3.25;1.75;;;16.90;91.50;;;;;;5062069;28;20397;-77
2021/07/28 00:41:00;;;;;;;4.63;1.98;;;16.90;91.50;;;;;;5062925;28;20515;-77
2021/07/28 00:44:01;;;;;;;4.07;1.25;;;16.80;91.60;;;;;;5083087;28;20075;-77
2021/07/28 00:46:56;;;;;;;3.28;1.75;;;16.80;91.60;;;;;;5072985;28;20127;-77
2021/07/28 00:49:41;;;;;;;3.63;1.80;;;16.70;91.60;;;;;;5088885;28;20044;-77
2021/07/28 00:52:37;;;;;;;3.53;1.95;;;16.70;91.60;;;;;;5057087;28;20306;-77
2021/07/28 00:55:38;;;;;;;5.00;1.90;;;16.70;91.60;;;;;;5080446;28;20041;-77
2021/07/28 00:58:42;;;;;;;2.95;1.55;;;16.70;91.70;;;;;;5084493;28;20038;-77
2021/07/28 01:01:15;;;;;;;2.75;1.27;;;16.70;91.70;;;;;;5075089;28;20051;-77
2021/07/28 01:03:50;;;;;;;3.80;1.80;;;16.60;91.70;;;;;;5094334;28;20044;-77
2021/07/28 01:06:21;;;;;;;3.13;1.58;;;16.60;91.70;;;;;;5079355;28;20048;-77
2021/07/28 01:08:54;;;;;;;3.63;1.75;;;16.60;91.70;;;;;;5079258;28;20032;-77
2021/07/28 01:11:35;;;;;;;4.22;2.13;;;16.60;91.70;;;;;;5069141;28;20036;-77
2021/07/28 01:14:10;;;;;;;4.57;1.55;;;16.60;91.70;;;;;;5087372;28;20039;-77
2021/07/28 01:16:52;;;;;;;4.63;2.17;;;16.50;91.70;;;;;;5092764;28;20039;-77
2021/07/28 01:19:48;;;;;;;3.90;2.15;;;16.50;91.70;;;;;;5086714;28;20079;-77
2021/07/28 01:22:35;;;;;;;3.35;1.63;;;16.50;91.70;;;;;;5091887;28;20036;-77
2021/07/28 01:25:21;;;;;;;3.28;1.38;;;16.50;91.70;;;;;;5073335;28;20127;-77
2021/07/28 01:27:55;;;;;;;3.90;1.65;;;16.50;91.80;;;;;;5083815;28;20118;-77
2021/07/28 01:31:36;;;;;;;3.50;1.52;;;16.40;91.80;;;;;;5095538;28;20136;-77
2021/07/28 01:34:46;;;;;;;3.63;1.80;;;16.40;92.00;;;;;;5091287;28;20398;-77
2021/07/28 01:38:45;;;;;;;4.03;1.70;;;16.40;91.70;;;;;;5088793;28;20081;-77
2021/07/28 01:42:08;;;;;;;2.70;1.17;;;16.30;91.80;;;;;;5086431;28;20509;-77
2021/07/28 01:44:43;;;;;;;3.67;1.83;;;16.30;91.80;;;;;;5092027;28;20043;-77
2021/07/28 01:47:40;;;;;;;;;;;;;;;;;;;;;
2021/07/28 01:50:54;;;;;;;3.67;1.70;;;16.20;91.90;;;;;;5090015;28;20480;-77
2021/07/28 01:53:58;;;;;;;5.50;1.80;;;16.20;91.90;;;;;;5074536;28;20082;-77
2021/07/28 01:56:42;;;;;;;2.95;1.48;;;16.20;91.80;;;;;;5085778;28;20052;-78
2021/07/28 02:00:07;;;;;;;3.78;1.42;;;16.10;91.90;;;;;;5062593;28;20044;-77
2021/07/28 02:02:49;;;;;;;4.22;2.00;;;16.20;91.80;;;;;;5067901;28;20062;-78
2021/07/28 02:05:27;;;;;;;3.30;1.65;;;16.10;91.90;;;;;;5073075;28;20139;-78
2021/07/28 02:07:55;;;;;;;3.92;1.92;;;16.10;91.90;;;;;;5035970;28;20045;-82
2021/07/28 02:10:21;;;;;;;3.95;2.13;;;16.10;91.90;;;;;;5055708;28;20147;-82
2021/07/28 02:12:48;;;;;;;4.05;2.10;;;16.10;91.90;;;;;;5055997;28;20052;-82
2021/07/28 02:15:15;;;;;;;4.15;2.08;;;16.10;91.90;;;;;;5072890;28;20445;-82
2021/07/28 02:17:42;;;;;;;3.95;2.35;;;16.10;91.90;;;;;;5060452;28;20052;-81
2021/07/28 02:20:10;;;;;;;5.80;2.42;;;16.10;92.00;;;;;;5070673;28;20041;-82
2021/07/28 02:22:37;;;;;;;3.90;2.17;;;16.10;91.90;;;;;;5069759;28;20040;-82
2021/07/28 02:25:04;;;;;;;4.13;2.15;;;16.20;91.90;;;;;;5090383;28;20070;-82
2021/07/28 02:27:31;;;;;;;3.70;1.67;;;16.20;91.90;;;;;;5089642;28;20499;-81
2021/07/28 02:29:58;;;;;;;4.45;2.13;;;16.30;91.80;;;;;;5056949;28;20048;-82
2021/07/28 02:32:25;;;;;;;3.20;1.90;;;16.40;91.80;;;;;;5073069;28;20044;-82
2021/07/28 02:34:52;;;;;;;3.92;1.95;;;16.40;91.70;;;;;;5069155;28;20036;-81
2021/07/28 02:37:19;;;;;;;3.38;1.85;;;16.40;92.00;;;;;;5048742;28;20044;-82
2021/07/28 02:39:46;;;;;;;4.65;1.98;;;16.40;91.70;;;;;;5044215;28;20067;-81
2021/07/28 02:42:13;;;;;;;4.85;2.70;;;16.40;91.70;;;;;;5073667;28;20044;-82
2021/07/28 02:44:40;;;;;;;3.80;2.20;;;16.40;91.80;;;;;;5078574;28;20098;-82
2021/07/28 02:47:08;;;;;;;3.67;2.15;;;16.40;91.80;;;;;;5088610;28;20076;-82
2021/07/28 02:49:36;;;;;;;3.95;2.15;;;16.40;91.80;;;;;;5072322;28;20502;-81
2021/07/28 02:52:03;;;;;;;4.20;2.47;;;16.40;91.80;;;;;;5067717;28;20048;-82
2021/07/28 02:54:31;;;;;;;4.55;1.80;;;16.40;91.80;;;;;;5087633;28;20040;-82
2021/07/28 02:56:58;;;;;;;4.53;2.22;;;16.40;91.80;;;;;;5071888;28;20097;-82
2021/07/28 02:59:25;;;;;;;3.88;2.28;;;16.30;91.80;;;;;;5073802;28;20486;-82
2021/07/28 03:01:52;;;;;;;3.75;1.92;;;16.40;91.90;;;;;;5092575;28;20040;-82
2021/07/28 03:04:20;;;;;;;4.85;1.92;;;16.40;91.80;;;;;;5101787;28;20105;-82
2021/07/28 03:06:47;;;;;;;3.83;1.83;;;16.50;91.80;;;;;;5093571;28;20043;-82
2021/07/28 03:09:14;;;;;;;4.15;1.45;;;16.50;91.80;;;;;;5077301;28;20048;-82
2021/07/28 03:11:41;;;;;;;3.88;1.88;;;16.60;91.70;;;;;;5078132;28;20048;-78
2021/07/28 03:14:08;;;;;;;5.57;2.33;;;16.60;91.70;;;;;;5075506;28;20085;-77
2021/07/28 03:16:38;;;;;;;3.78;1.75;;;16.70;91.70;;;;;;5087364;28;20036;-82
2021/07/28 03:19:05;;;;;;;3.72;1.58;;;16.80;91.60;;;;;;5094203;28;20041;-82
2021/07/28 03:21:35;;;;;;;4.20;2.38;;;16.80;91.60;;;;;;5084015;28;20052;-82
2021/07/28 03:24:02;;;;;;;3.30;1.80;;;16.80;91.60;;;;;;5091334;28;20406;-82
2021/07/28 03:26:30;;;;;;;3.55;1.92;;;16.80;91.60;;;;;;5058198;28;20126;-82
2021/07/28 03:28:57;;;;;;;4.03;2.05;;;16.80;91.60;;;;;;5072424;28;20087;-78
2021/07/28 03:31:24;;;;;;;3.78;2.08;;;16.80;91.60;;;;;;5076143;28;20056;-77
2021/07/28 03:33:51;;;;;;;3.20;1.85;;;16.80;91.60;;;;;;5071369;28;20048;-78
2021/07/28 03:36:17;;;;;;;3.72;2.10;;;16.80;91.60;;;;;;5058393;28;20395;-82
2021/07/28 03:38:44;;;;;;;3.55;1.80;;;16.80;91.60;;;;;;5073452;28;20085;-81
2021/07/28 03:41:11;;;;;;;5.57;3.13;;;16.90;91.70;;;;;;5079587;28;20090;-82
2021/07/28 03:43:38;;;;;;;4.13;2.30;;;16.90;91.70;;;;;;5076666;28;20044;-82
2021/07/28 03:46:05;;;;;;;3.88;1.40;;;16.90;91.70;;;;;;5075712;28;20048;-82
2021/07/28 03:48:33;;;;;;;3.83;2.00;;;16.90;91.60;;;;;;5062706;28;20036;-82
2021/07/28 03:51:00;;;;;;;4.53;1.92;;;16.90;91.60;;;;;;5072572;28;20126;-82
2021/07/28 03:53:27;;;;;;;4.10;2.00;;;16.90;91.60;;;;;;5071524;28;20102;-82
2021/07/28 03:55:55;;;;;;;3.67;1.73;;;16.90;91.60;;;;;;5064812;28;20487;-82
2021/07/28 03:58:22;;;;;;;3.13;1.75;;;16.90;91.60;;;;;;5077341;28;20037;-82
2021/07/28 04:00:49;;;;;;;3.65;1.80;;;16.90;91.90;;;;;;5056508;28;20064;-82
2021/07/28 04:03:16;;;;;;;3.50;1.85;;;16.90;91.90;;;;;;5075101;28;20036;-82
2021/07/28 04:05:43;;;;;;;2.35;1.25;;;16.90;91.60;;;;;;5092192;28;20109;-83
2021/07/28 04:08:10;;;;;;;3.30;1.58;;;16.90;91.60;;;;;;5076027;28;20051;-83
2021/07/28 04:10:37;;;;;;;3.22;1.75;;;16.90;91.60;;;;;;5080719;28;20051;-82
2021/07/28 04:13:04;;;;;;;4.03;1.60;;;17.00;91.60;;;;;;5082919;28;20037;-82
2021/07/28 04:15:31;;;;;;;3.38;1.50;;;17.00;91.60;;;;;;5076200;28;20090;-82
2021/07/28 04:17:58;;;;;;;4.97;2.10;;;17.00;91.60;;;;;;5070061;28;20037;-82
2021/07/28 04:20:25;;;;;;;3.30;1.65;;;17.10;91.60;;;;;;5075369;28;20070;-82
2021/07/28 04:22:52;;;;;;;4.15;2.05;;;17.00;91.60;;;;;;5075022;28;20110;-82
2021/07/28 04:25:20;;;;;;;3.50;1.98;;;17.10;91.60;;;;;;5075557;28;20567;-82
2021/07/28 04:27:46;;;;;;;2.92;1.77;;;17.10;91.50;;;;;;5058058;28;20093;-82
2021/07/28 04:30:14;;;;;;;5.93;2.55;;;17.10;91.50;;;;;;5055957;28;20040;-82
2021/07/28 04:32:41;;;;;;;5.93;2.55;;;17.20;91.50;;;;;;5092077;28;20044;-82
2021/07/28 04:35:08;;;;;;;4.63;2.55;;;17.20;91.50;;;;;;5074863;28;20552;-82
2021/07/28 04:37:35;;;;;;;3.08;1.50;;;17.20;91.50;;;;;;5072030;28;20048;-82
2021/07/28 04:40:03;;;;;;;3.75;1.88;;;17.20;91.50;;;;;;5063880;28;20132;-82
2021/07/28 04:42:30;;;;;;;4.40;1.52;;;17.20;91.40;;;;;;5058156;28;20085;-83
2021/07/28 04:44:57;;;;;;;3.38;1.88;;;17.20;91.40;;;;;;5075323;28;20044;-82
2021/07/28 04:47:24;;;;;;;3.47;1.73;;;17.30;91.50;;;;;;5074841;28;20131;-82
2021/07/28 04:49:52;;;;;;;3.88;1.98;;;17.30;91.40;;;;;;5058335;28;20510;-82
2021/07/28 04:52:24;;;;;;;4.28;2.13;;;17.30;91.40;;;;;;5058672;28;20054;-82
2021/07/28 04:54:55;;;;;;;4.78;2.38;;;17.30;91.40;;;;;;5049409;28;20048;-82
2021/07/28 04:57:22;;;;;;;6.55;3.15;;;17.30;91.40;;;;;;5069802;28;20085;-82
2021/07/28 04:59:48;;;;;;;5.35;2.28;;;17.30;91.40;;;;;;5052237;28;20041;-77
2021/07/28 05:02:15;;;;;;;3.67;2.10;;;17.40;91.40;;;;;;5085901;28;20044;-77
2021/07/28 05:04:43;;;;;;;4.68;2.72;;;17.40;91.40;;;;;;5058655;28;20395;-78
2021/07/28 05:07:10;;;;;;;3.78;1.88;;;17.40;91.40;;;;;;5074031;28;20036;-78
2021/07/28 05:09:38;;;;;;;5.43;3.17;;;17.40;91.40;;;;;;5065150;28;20040;-77
2021/07/28 05:12:07;;;;;;;4.22;2.25;;;17.40;91.40;;;;;;5063004;28;20093;-77
2021/07/28 05:14:34;;;;;;;3.55;2.15;;;17.50;91.40;;;;;;5082434;28;20052;-77
2021/07/28 05:17:01;;;;;;;6.03;3.50;;;17.50;91.40;;;;;;5054387;28;20460;-77
2021/07/28 05:19:28;;;;;;;7.30;3.90;;;17.50;91.40;;;;;;5089664;28;20056;-82
2021/07/28 05:21:55;;;;;;;5.53;3.63;;;17.50;91.40;;;;;;5057925;28;20114;-82
2021/07/28 05:24:22;;;;;;;4.45;2.47;;;17.50;91.30;;;;;;5071483;28;20079;-81
2021/07/28 05:26:49;;;;;;;5.43;3.13;;;17.50;91.30;;;;;;5074633;28;20037;-81
2021/07/28 05:29:16;;;;;;;6.72;3.92;;;17.60;91.30;;;;;;5086593;28;20460;-81
2021/07/28 05:31:43;;;;;;;6.80;3.00;;;17.60;91.40;;;;;;5071772;28;20380;-82
2021/07/28 05:34:11;;;;;;;4.63;2.40;;;17.50;91.30;;;;;;5075045;28;20511;-81
2021/07/28 05:36:37;;;;;;;6.53;2.92;;;17.60;91.30;;;;;;5090842;28;20123;-82
2021/07/28 05:39:05;;;;;;;6.82;4.13;;;17.60;91.30;;;;;;5074194;28;20036;-81
2021/07/28 05:41:31;;;;;;;7.45;4.10;;;17.60;91.40;;;;;;5070464;28;20078;-81
2021/07/28 05:43:58;;;;;;;6.50;3.45;;;17.60;91.30;;;;;;5058469;28;20040;-81
2021/07/28 05:46:25;;;;;;;6.45;4.45;;;17.70;91.30;;;;;;5073053;28;20483;-80
2021/07/28 05:48:52;;;;;;;6.43;3.92;;;17.70;91.30;;;;;;5090494;28;20061;-81
2021/07/28 05:51:20;;;;;;;8.15;4.78;;;17.70;91.30;;;;;;5081015;28;20032;-81
2021/07/28 05:53:46;;;;;;;5.15;2.75;;;17.70;91.30;;;;;;5074021;28;20734;-82
2021/07/28 05:56:14;;;;;;;6.07;3.65;;;17.80;91.30;;;;;;5088493;28;20039;-81
2021/07/28 05:58:40;;;;;;;6.28;3.95;;;17.80;91.20;;;;;;5063870;28;20449;-85
2021/07/28 06:01:07;;;;;;;4.80;3.17;;;17.80;91.20;;;;;;5053461;28;20074;-81
2021/07/28 06:03:35;;;;;;;5.68;4.15;;;17.90;91.20;;;;;;5090145;28;20131;-80
2021/07/28 06:06:02;;;;;;;5.90;3.72;;;17.90;91.20;;;;;;5090843;28;20048;-80
2021/07/28 06:08:29;;;;;;;7.20;3.80;;;17.90;91.20;;;;;;5071329;28;20040;-80
2021/07/28 06:10:57;;;;;;;4.55;2.80;;;17.90;91.20;;;;;;5086940;28;20048;-80
2021/07/28 06:13:24;;;;;;;8.68;4.82;;;17.90;91.30;;;;;;5090580;28;20040;-80
2021/07/28 06:15:51;;;;;;;11.38;6.78;;;18.00;91.30;;;;;;5073217;28;20051;-80
2021/07/28 06:18:18;;;;;;;8.50;5.68;;;18.00;91.30;;;;;;5098669;28;20059;-80
2021/07/28 06:20:45;;;;;;;8.05;5.15;;;18.00;91.20;;;;;;5092167;28;20048;-80
2021/07/28 06:23:12;;;;;;;8.63;5.07;;;18.00;91.30;;;;;;5076376;28;20041;-80
2021/07/28 06:25:39;;;;;;;9.13;6.65;;;17.90;91.20;;;;;;5042344;28;20047;-80
2021/07/28 06:28:06;;;;;;;8.02;6.28;;;18.00;91.30;;;;;;5070814;28;20043;-80
2021/07/28 06:30:33;;;;;;;8.70;5.78;;;18.10;91.30;;;;;;5072717;28;20052;-80
2021/07/28 06:33:00;;;;;;;5.20;3.55;;;18.20;91.20;;;;;;5090506;28;20044;-80
2021/07/28 06:35:27;;;;;;;8.63;5.85;;;18.30;91.40;;;;;;5075698;28;20047;-81
2021/07/28 06:37:54;;;;;;;7.72;5.13;;;18.30;91.00;;;;;;5077475;28;20089;-82
2021/07/28 06:40:21;;;;;;;9.55;5.13;;;18.30;91.00;;;;;;5077868;28;20078;-81
2021/07/28 06:42:48;;;;;;;7.82;5.60;;;18.40;91.00;;;;;;5094289;28;20040;-81
2021/07/28 06:45:15;;;;;;;6.20;4.80;;;18.40;91.00;;;;;;5074945;28;20056;-81
2021/07/28 06:47:42;;;;;;;8.18;4.97;;;18.50;91.00;;;;;;5094826;28;20040;-81
2021/07/28 06:50:10;;;;;;;6.60;4.07;;;18.60;90.90;;;;;;5077211;28;20073;-81
2021/07/28 06:52:40;;;;;;;6.72;4.88;;;18.60;90.90;;;;;;5093676;28;20052;-81
2021/07/28 06:55:07;;;;;;;9.10;6.15;;;18.70;90.90;;;;;;5092688;28;20123;-79
2021/07/28 06:57:34;;;;;;;7.95;5.32;;;18.80;90.80;;;;;;5077146;28;20048;-78
2021/07/28 07:00:02;;;;;;;8.30;5.60;;;18.80;90.70;;;;;;5060187;28;20039;-79
2021/07/28 07:02:29;;;;;;;8.88;6.45;;;18.90;90.70;;;;;;5094862;28;20040;-79
2021/07/28 07:04:56;;;;;;;5.85;4.07;;;18.90;90.60;;;;;;5074136;28;20048;-79
2021/07/28 07:07:23;;;;;;;6.82;4.53;;;18.90;90.70;;;;;;5071053;28;20045;-79
2021/07/28 07:09:52;;;;;;;7.65;4.82;;;18.90;90.70;;;;;;5072210;28;20094;-76
2021/07/28 07:12:19;;;;;;;7.70;6.10;;;18.90;90.70;;;;;;5075154;28;20051;-77
2021/07/28 07:14:47;;;;;;;7.60;4.90;;;19.00;90.60;;;;;;5088660;28;20055;-77
2021/07/28 07:17:17;;;;;;;7.55;5.03;;;19.00;90.50;;;;;;5090261;28;20047;-77
2021/07/28 07:19:49;;;;;;;6.70;4.45;;;19.10;90.50;;;;;;5072081;28;20040;-77
2021/07/28 07:22:16;;;;;;;7.35;4.03;;;19.20;90.40;;;;;;5084379;28;20551;-77
2021/07/28 07:24:43;;;;;;;6.85;4.22;;;19.30;90.40;;;;;;5060421;28;20059;-76
2021/07/28 07:27:10;;;;;;;7.53;4.70;;;19.40;90.30;;;;;;5068867;28;20086;-77
2021/07/28 07:29:50;;;;;;;;;;;;;;;;;;;;;
2021/07/28 07:32:22;;;;;;;6.20;3.70;;;19.40;90.10;;;;;;5085359;28;20097;-76
2021/07/28 07:34:52;;;;;;;6.55;4.00;;;19.40;90.20;;;;;;5053839;28;20778;-77
2021/07/28 07:37:19;;;;;;;6.53;3.65;;;19.40;90.20;;;;;;5090406;28;20052;-77
2021/07/28 07:39:45;;;;;;;6.70;3.92;;;19.40;90.20;;;;;;5074527;28;20043;-77
2021/07/28 07:42:13;;;;;;;5.30;3.13;;;19.50;90.20;;;;;;5070365;28;20499;-78
2021/07/28 07:44:43;;;;;;;4.88;3.55;;;19.40;90.10;;;;;;5073042;28;20102;-79
2021/07/28 07:47:10;;;;;;;5.63;3.83;;;19.40;90.40;;;;;;5081669;28;20044;-77
2021/07/28 07:49:37;;;;;;;5.45;3.80;;;19.40;90.10;;;;;;5067435;28;20055;-75
2021/07/28 07:52:06;;;;;;;5.65;3.38;;;19.50;90.10;;;;;;5072799;28;20048;-75
2021/07/28 07:54:34;;;;;;;6.15;4.07;;;19.70;90.00;;;;;;5072394;28;20054;-75
2021/07/28 07:57:04;;;;;;;5.07;3.47;;;19.80;89.70;;;;;;5071792;28;20036;-75
2021/07/28 07:59:31;;;;;;;3.28;2.10;;;19.90;89.20;;;;;;5072930;28;20093;-76
2021/07/28 08:01:58;;;;;;;5.18;3.17;;;20.00;89.10;;;;;;5065217;28;20037;-75
2021/07/28 08:04:25;;;;;;;8.15;5.05;;;20.10;89.00;;;;;;5088095;28;20051;-76
2021/07/28 08:07:35;;;;;;;4.78;3.30;;;20.20;88.00;;;;;;5071994;28;20486;-76
2021/07/28 08:10:19;;;;;;;6.13;3.65;;;20.40;87.80;;;;;;5071757;28;20044;-76
2021/07/28 08:12:46;;;;;;;4.60;2.35;;;20.50;87.70;;;;;;5065055;28;20052;-76
2021/07/28 08:15:13;;;;;;;5.03;2.53;;;20.70;87.30;;;;;;5072443;28;20551;-76
2021/07/28 08:17:40;;;;;;;6.07;2.50;;;20.80;86.90;;;;;;5065532;28;20032;-77
2021/07/28 08:20:19;;;;;;;4.05;2.20;;;20.80;86.80;;;;;;5055513;28;20036;-78
2021/07/28 08:22:57;;;;;;;4.32;2.50;;;20.70;86.80;;;;;;5065534;28;20513;-78
2021/07/28 08:25:24;;;;;;;4.13;2.67;;;20.60;86.90;;;;;;5087686;28;20048;-76
2021/07/28 08:31:52;;;;;;;;;;;20.50;86.70;;;;;;5078763;28;20060;-78
2021/07/28 08:34:29;;;;;;;3.58;2.10;;;20.50;87.10;;;;;;5099820;28;19920;-77
2021/07/28 08:37:07;;;;;;;4.13;2.45;;;20.50;87.10;;;;;;5094478;28;20140;-77
2021/07/28 08:40:31;;;;;;;3.20;1.85;;;20.70;86.50;;;;;;5063965;28;20044;-77
2021/07/28 08:50:51;;;;;;;2.75;1.75;;;20.70;85.60;;;;;;5087141;28;20032;-80
2021/07/28 08:53:38;;;;;;;4.03;1.90;;;20.80;86.40;;;;;;5064604;28;20044;-78
2021/07/28 08:58:07;;;;;;;3.28;1.60;;;20.80;85.40;;;;;;5060458;28;20055;-79
2021/07/28 09:01:03;;;;;;;2.95;1.80;;;20.80;85.50;;;;;;5077793;28;20048;-78
2021/07/28 09:03:42;;;;;;;3.88;1.98;;;20.80;85.20;;;;;;5080121;28;20401;-78
2021/07/28 09:06:28;;;;;;;4.18;2.17;;;21.00;84.90;;;;;;5085682;28;20048;-78
2021/07/28 09:09:01;;;;;;;3.08;1.95;;;21.20;84.40;;;;;;5102281;28;20036;-78
2021/07/28 09:11:28;;;;;;;3.45;1.45;;;21.40;83.90;;;;;;5088128;28;20043;-77
2021/07/28 09:13:57;;;;;;;3.30;1.70;;;21.40;83.70;;;;;;5077608;28;20045;-76
2021/07/28 09:16:24;;;;;;;2.50;1.35;;;21.40;83.50;;;;;;5082682;28;20543;-76
2021/07/28 09:18:52;;;;;;;2.80;1.45;;;21.40;83.30;;;;;;5068016;28;20047;-77
2021/07/28 09:21:19;;;;;;;3.70;1.30;;;21.30;83.10;;;;;;5067618;28;20064;-76
2021/07/28 09:23:48;;;;;;;2.20;1.30;;;21.20;83.70;;;;;;5082748;28;20086;-76
2021/07/28 09:26:55;;;;;;;2.30;1.55;;;21.30;83.30;;;;;;5083469;28;20089;-76
2021/07/28 09:29:26;;;;;;;2.58;1.45;;;21.40;82.70;;;;;;5086916;28;20043;-76
2021/07/28 09:31:57;;;;;;;2.53;1.20;;;21.40;82.80;;;;;;5086235;28;20056;-77
2021/07/28 09:34:24;;;;;;;2.35;1.50;;;21.50;82.70;;;;;;5088342;28;20044;-77
2021/07/28 09:36:56;;;;;;;2.35;1.58;;;21.70;82.10;;;;;;5086180;28;20089;-79
2021/07/28 09:39:33;;;;;;;3.13;1.80;;;21.80;81.30;;;;;;5073997;28;20067;-78
2021/07/28 09:42:13;;;;;;;2.45;1.40;;;21.80;81.10;;;;;;5105573;28;20055;-79
2021/07/28 09:44:42;;;;;;;3.88;1.67;;;21.70;80.60;;;;;;5107573;28;20093;-78
2021/07/28 09:47:11;;;;;;;2.92;1.42;;;21.50;81.00;;;;;;5091464;28;20063;-78
2021/07/28 09:49:42;;;;;;;2.38;1.38;;;21.40;81.00;;;;;;5091060;28;20040;-79
2021/07/28 09:52:21;;;;;;;2.42;1.23;;;21.30;81.20;;;;;;5096854;28;20368;-78
2021/07/28 09:54:51;;;;;;;2.88;1.48;;;21.40;81.00;;;;;;5090486;28;20040;-77
2021/07/28 09:57:22;;;;;;;2.80;1.40;;;21.50;80.20;;;;;;5099191;28;20040;-75
2021/07/28 09:59:51;;;;;;;1.95;1.40;;;21.50;79.80;;;;;;5081339;28;20408;-76
2021/07/28 10:02:25;;;;;;;2.70;1.80;;;21.60;79.70;;;;;;5094494;28;20034;-76
2021/07/28 10:04:54;;;;;;;3.33;1.50;;;21.70;79.10;;;;;;5086360;28;20093;-78
2021/07/28 10:07:23;;;;;;;3.70;1.30;;;21.80;79.20;;;;;;5085735;28;20131;-78
2021/07/28 10:10:16;;;;;;;3.70;1.30;;;22.00;78.90;;;;;;5103811;28;20044;-79
2021/07/28 10:12:44;;;;;;;3.15;1.52;;;22.10;78.10;;;;;;5089345;28;20044;-76
2021/07/28 10:15:14;;;;;;;3.67;1.75;;;22.30;77.30;;;;;;5081354;28;20064;-78
2021/07/28 10:17:42;;;;;;;4.00;1.70;;;22.50;77.10;;;;;;5068232;28;20035;-79
2021/07/28 10:20:11;;;;;;;1.80;1.15;;;22.70;76.50;;;;;;5081445;28;20480;-79
2021/07/28 10:22:41;;;;;;;4.13;1.50;;;22.90;75.80;;;;;;5086534;28;20099;-77
2021/07/28 10:25:16;;;;;;;2.85;1.50;;;22.90;75.30;;;;;;5061126;28;20040;-77
2021/07/28 10:27:47;;;;;;;3.15;1.85;;;23.00;74.70;;;;;;5104470;27;20059;-76
2021/07/28 10:30:15;;;;;;;3.30;1.70;;;22.90;74.20;;;;;;5085686;28;20067;-78
2021/07/28 10:32:44;;;;;;;1.77;1.02;;;22.70;74.80;;;;;;5072213;28;20044;-78
2021/07/28 10:35:29;;;;;;;3.03;1.13;;;22.60;75.30;;;;;;5094434;28;20098;-75
2021/07/28 10:38:02;;;;;;;3.00;1.20;;;22.40;75.40;;;;;;5107412;27;20142;-77
2021/07/28 10:40:31;;;;;;;2.78;1.17;;;22.30;75.10;;;;;;5096683;28;20050;-78
2021/07/28 10:43:00;;;;;;;1.67;0.88;;;22.40;75.20;;;;;;5094830;28;20058;-77
2021/07/28 10:45:55;;;;;;;3.08;1.05;;;22.60;75.10;;;;;;5088141;28;20152;-75
2021/07/28 10:48:43;;;;;;;3.30;1.20;;;23.00;74.50;;;;;;5090517;28;20039;-78
2021/07/28 10:51:30;;;;;;;1.95;1.17;;;23.20;74.30;;;;;;5082281;28;20051;-77
2021/07/28 10:53:57;;;;;;;1.95;1.00;;;23.40;74.00;;;;;;5075620;28;20082;-76
2021/07/28 10:56:25;;;;;;;1.80;1.00;;;23.40;73.80;;;;;;5068102;28;20487;-77
2021/07/28 10:58:55;;;;;;;2.25;0.77;;;23.20;74.20;;;;;;5076277;28;20044;-77
2021/07/28 11:01:51;;;;;;;2.40;0.88;;;22.90;74.60;;;;;;5081265;28;20066;-74
2021/07/28 11:04:24;;;;;;;1.38;1.05;;;22.70;74.60;;;;;;5073416;28;20487;-76
2021/07/28 11:07:16;;;;;;;1.90;0.82;;;22.50;75.00;;;;;;5092972;28;20147;-83
2021/07/28 11:09:43;;;;;;;1.08;0.80;;;22.60;74.90;;;;;;5097592;28;20556;-82
2021/07/28 11:15:25;;;;;;;1.42;0.85;;;23.20;73.90;;;;;;5086177;28;20091;-81
2021/07/28 11:17:54;;;;;;;1.90;0.90;;;23.20;73.70;;;;;;5067842;28;20056;-78
2021/07/28 11:20:34;;;;;;;2.00;1.08;;;23.10;73.40;;;;;;5089686;28;20470;-82
2021/07/28 11:23:23;;;;;;;1.80;1.10;;;23.10;72.80;;;;;;5056043;28;20032;-80
2021/07/28 11:25:51;;;;;;;2.78;1.10;;;23.50;72.40;;;;;;5074153;28;20036;-80
2021/07/28 11:28:19;;;;;;;2.33;0.90;;;23.80;71.80;;;;;;5086466;28;20552;-79
2021/07/28 11:31:11;;;;;;;1.52;0.80;;;24.00;71.40;;;;;;5089065;28;20043;-81
2021/07/28 11:33:39;;;;;;;;;;;24.00;71.40;;;;;;5086516;28;20068;-80
2021/07/28 11:36:06;;;;;;;1.45;0.75;;;23.80;71.70;;;;;;5079197;28;19924;-83
2021/07/28 11:38:39;;;;;;;2.00;1.00;;;23.70;71.90;;;;;;5064028;28;20044;-76
2021/07/28 11:41:10;;;;;;;1.67;0.93;;;23.50;71.40;;;;;;5082344;28;20098;-76
2021/07/28 11:43:41;;;;;;;2.97;0.75;;;23.30;71.30;;;;;;5081817;28;20051;-76
2021/07/28 11:46:16;;;;;;;2.47;0.77;;;23.10;71.70;;;;;;5087355;28;20046;-76
2021/07/28 11:48:50;;;;;;;1.90;0.70;;;23.00;72.60;;;;;;5085495;28;20040;-76
2021/07/28 11:51:25;;;;;;;2.85;0.80;;;23.00;72.10;;;;;;5062325;28;20054;-76
2021/07/28 11:54:15;;;;;;;1.40;0.65;;;23.20;71.80;;;;;;5083051;28;20037;-75
2021/07/28 11:56:55;;;;;;;1.77;0.77;;;23.70;70.80;;;;;;5079385;28;20048;-76
2021/07/28 12:02:21;;;;;;;1.40;0.70;;;23.80;69.60;;;;;;5013535;23;20063;-77
2021/07/28 12:04:50;;;;;;;1.85;0.98;;;23.60;69.70;;;;;;4941813;29;20207;-77
2021/07/28 12:07:18;;;;;;;1.92;0.70;;;23.50;69.40;;;;;;4945628;29;20122;-77
2021/07/28 12:10:00;;;;;;;1.98;1.00;;;23.60;69.30;;;;;;4912944;29;20185;-77
2021/07/28 12:12:30;;;;;;;1.58;0.93;;;23.70;67.90;;;;;;4944642;29;20446;-76
2021/07/28 12:15:09;;;;;;;2.22;0.90;;;23.90;68.10;;;;;;4940931;29;20094;-77
2021/07/28 12:17:36;;;;;;;1.42;0.90;;;24.40;66.80;;;;;;4934339;29;20047;-76
2021/07/28 12:20:10;;;;;;;1.65;0.80;;;24.40;66.70;;;;;;4926487;29;20548;-76
2021/07/28 12:22:41;;;;;;;;;;;24.40;67.00;;;;;;4949073;29;20473;-77
2021/07/28 12:25:21;;;;;;;1.40;0.68;;;24.30;67.40;;;;;;4925562;29;19923;-77
2021/07/28 12:27:57;;;;;;;1.23;0.70;;;24.10;67.60;;;;;;4948476;28;20494;-74
2021/07/28 12:30:39;;;;;;;2.83;1.08;;;24.00;68.10;;;;;;5236039;23;20079;-76
2021/07/28 12:33:10;;;;;;;3.67;0.95;;;24.00;68.50;;;;;;4931644;29;20054;-76
2021/07/28 12:35:46;;;;;;;1.63;0.77;;;24.10;68.00;;;;;;4935994;29;20039;-75
2021/07/28 12:38:16;;;;;;;1.65;0.88;;;24.30;67.60;;;;;;4932791;29;20130;-76
2021/07/28 12:40:56;;;;;;;1.60;0.70;;;24.20;67.70;;;;;;4934012;29;20043;-78
2021/07/28 12:43:28;;;;;;;1.45;0.70;;;24.10;67.30;;;;;;4950253;29;20040;-78
2021/07/28 12:45:59;;;;;;;1.38;0.70;;;24.00;68.40;;;;;;4936799;29;20036;-78
2021/07/28 12:48:28;;;;;;;2.33;1.05;;;23.90;67.70;;;;;;4934161;29;20506;-77
2021/07/28 12:51:10;;;;;;;1.35;0.75;;;23.70;67.80;;;;;;4917484;29;20467;-78
2021/07/28 12:53:58;;;;;;;3.50;0.90;;;23.60;68.20;;;;;;4934022;29;20126;-77
2021/07/28 12:56:37;;;;;;;2.95;0.95;;;23.30;67.80;;;;;;4934890;28;20050;-77
2021/07/28 12:59:07;;;;;;;1.30;0.75;;;23.30;68.10;;;;;;4935497;28;20821;-78
2021/07/28 13:01:42;;;;;;;3.92;0.98;;;23.90;67.20;;;;;;4935464;29;20054;-77
2021/07/28 13:04:14;;;;;;;1.70;0.90;;;24.60;65.60;;;;;;4935781;29;20086;-78
2021/07/28 13:06:48;;;;;;;2.92;1.05;;;25.50;63.60;;;;;;4931579;28;20060;-76
2021/07/28 13:09:23;;;;;;;2.85;1.15;;;26.10;62.30;;;;;;4941058;29;20103;-78
2021/07/28 13:11:51;;;;;;;2.42;0.90;;;25.80;61.20;;;;;;4939127;29;20078;-78
2021/07/28 13:14:19;;;;;;;4.88;1.13;;;25.40;62.10;;;;;;4933741;29;20043;-75
2021/07/28 13:16:48;;;;;;;1.85;0.85;;;25.00;63.00;;;;;;4916420;29;20115;-77
2021/07/28 13:19:16;;;;;;;2.55;0.68;;;24.60;64.10;;;;;;4946066;28;20074;-76
2021/07/28 13:21:43;;;;;;;1.98;0.82;;;24.30;64.90;;;;;;4926704;29;20067;-76
2021/07/28 13:24:12;;;;;;;3.13;1.27;;;23.90;65.00;;;;;;4930345;29;20182;-77
2021/07/28 13:26:42;;;;;;;3.33;1.00;;;23.50;65.20;;;;;;4941929;28;20044;-80
2021/07/28 13:29:16;;;;;;;2.90;0.93;;;23.00;66.10;;;;;;4940087;28;20052;-80
2021/07/28 13:31:47;;;;;;;1.70;1.10;;;22.50;67.00;;;;;;4928280;29;20060;-78
2021/07/28 13:34:15;;;;;;;1.85;1.10;;;22.10;68.50;;;;;;4933450;29;20146;-79
2021/07/28 13:37:02;;;;;;;1.90;1.10;;;21.90;69.30;;;;;;5193554;23;20055;31
2021/07/28 13:39:34;;;;;;;1.25;0.60;;;21.80;69.70;;;;;;4902108;29;20048;-77
2021/07/28 13:42:13;;;;;;;1.67;0.98;;;21.70;69.80;;;;;;4907301;29;20044;-74
2021/07/28 13:51:34;;;;;;;1.95;0.70;;;22.10;69.10;;;;;;4881869;24;20511;31